createdAt,value
2023-05-05T00:01:08.734Z,5.88
2023-05-05T00:03:35.744Z,5.20
2023-05-05T00:06:02.845Z,5.53
2023-05-05T00:08:29.656Z,5.32
2023-05-05T00:10:57.375Z,5.38
2023-05-05T00:13:24.248Z,5.70
2023-05-05T00:15:53.420Z,6.03
2023-05-05T00:18:21.012Z,6.05
2023-05-05T00:20:48.133Z,5.40
2023-05-05T00:23:16.013Z,5.37
2023-05-05T00:25:42.590Z,5.53
2023-05-05T00:28:09.094Z,5.85
2023-05-05T00:30:37.290Z,5.82
2023-05-05T00:33:04.016Z,6.18
2023-05-05T00:35:30.758Z,6.10
2023-05-05T00:37:57.383Z,7.10
2023-05-05T00:40:25.038Z,5.90
2023-05-05T00:42:52.112Z,6.40
2023-05-05T00:45:19.802Z,6.03
2023-05-05T00:47:48.536Z,6.22
2023-05-05T00:50:22.914Z,6.78
2023-05-05T00:52:50.524Z,6.03
2023-05-05T00:55:17.791Z,6.28
2023-05-05T00:57:45.377Z,6.10
2023-05-05T01:00:12.660Z,6.32
2023-05-05T01:02:39.876Z,6.57
2023-05-05T01:05:08.575Z,6.35
2023-05-05T01:08:04.585Z,6.18
2023-05-05T01:10:31.160Z,6.57
2023-05-05T01:13:20.544Z,6.33
2023-05-05T01:15:53.357Z,5.93
2023-05-05T01:18:35.882Z,6.30
2023-05-05T01:21:14.557Z,6.53
2023-05-05T01:23:46.988Z,6.67
2023-05-05T01:26:31.514Z,6.60
2023-05-05T01:29:15.012Z,6.70
2023-05-05T01:31:51.767Z,6.40
2023-05-05T01:34:27.888Z,6.50
2023-05-05T01:37:07.438Z,6.65
2023-05-05T01:39:35.900Z,6.30
2023-05-05T01:42:08.099Z,6.67
2023-05-05T01:44:36.818Z,6.87
2023-05-05T01:47:04.974Z,6.63
2023-05-05T01:49:33.414Z,6.00
2023-05-05T01:52:03.675Z,6.53
2023-05-05T01:54:34.168Z,6.43
2023-05-05T01:57:04.796Z,6.70
2023-05-05T01:59:32.718Z,6.70
2023-05-05T02:02:02.004Z,6.60
2023-05-05T02:04:30.076Z,6.77
2023-05-05T02:07:00.016Z,6.83
2023-05-05T02:09:28.560Z,6.67
2023-05-05T02:11:57.934Z,6.97
2023-05-05T02:14:28.850Z,6.60
2023-05-05T02:16:56.869Z,6.53
2023-05-05T02:19:29.582Z,6.50
2023-05-05T02:21:56.983Z,6.40
2023-05-05T02:24:24.571Z,6.20
2023-05-05T02:26:53.221Z,6.37
2023-05-05T02:29:24.340Z,6.43
2023-05-05T02:31:55.294Z,6.10
2023-05-05T02:34:27.983Z,6.10
2023-05-05T02:37:03.282Z,6.40
2023-05-05T02:39:39.468Z,6.37
2023-05-05T02:42:15.203Z,7.40
2023-05-05T02:44:44.329Z,6.25
2023-05-05T02:47:11.784Z,6.22
2023-05-05T02:49:38.328Z,6.90
2023-05-05T02:52:05.017Z,7.00
2023-05-05T02:54:35.070Z,6.07
2023-05-05T02:57:06.200Z,6.97
2023-05-05T02:59:57.799Z,6.87
2023-05-05T03:02:54.365Z,7.10
2023-05-05T03:05:25.130Z,6.10
2023-05-05T03:08:16.840Z,6.40
2023-05-05T03:11:03.270Z,6.23
2023-05-05T03:13:32.354Z,6.77
2023-05-05T03:16:04.501Z,6.80
2023-05-05T03:18:31.666Z,6.80
2023-05-05T03:21:08.642Z,6.43
2023-05-05T03:23:37.828Z,6.83
2023-05-05T03:26:08.836Z,6.90
2023-05-05T03:28:39.884Z,7.45
2023-05-05T03:31:14.649Z,7.03
2023-05-05T03:33:41.364Z,6.90
2023-05-05T03:36:08.081Z,7.17
2023-05-05T03:38:34.909Z,7.20
2023-05-05T03:41:03.447Z,6.20
2023-05-05T03:43:31.026Z,6.60
2023-05-05T03:45:57.949Z,7.23
2023-05-05T03:48:24.988Z,6.87
2023-05-05T03:50:52.770Z,7.17
2023-05-05T03:53:21.036Z,6.97
2023-05-05T03:55:48.746Z,7.43
2023-05-05T03:58:15.242Z,7.13
2023-05-05T04:00:42.239Z,7.37
2023-05-05T04:03:10.887Z,7.53
2023-05-05T04:05:37.881Z,6.63
2023-05-05T04:08:04.684Z,7.13
2023-05-05T04:10:31.553Z,7.27
2023-05-05T04:12:58.232Z,6.80
2023-05-05T04:15:24.840Z,7.00
2023-05-05T04:17:51.400Z,6.77
2023-05-05T04:20:18.910Z,7.10
2023-05-05T04:22:45.967Z,6.80
2023-05-05T04:25:12.751Z,6.40
2023-05-05T04:27:39.264Z,7.67
2023-05-05T04:30:07.413Z,7.33
2023-05-05T04:32:36.533Z,6.90
2023-05-05T04:35:04.021Z,7.07
2023-05-05T04:37:30.591Z,7.73
2023-05-05T04:39:58.649Z,7.63
2023-05-05T04:42:25.821Z,7.30
2023-05-05T04:44:52.757Z,7.77
2023-05-05T04:47:19.328Z,8.13
2023-05-05T04:49:45.908Z,7.40
2023-05-05T04:52:13.509Z,7.57
2023-05-05T04:54:40.694Z,7.33
2023-05-05T04:57:07.532Z,7.53
2023-05-05T04:59:35.125Z,7.17
2023-05-05T05:02:01.770Z,7.37
2023-05-05T05:04:28.249Z,7.50
2023-05-05T05:06:56.235Z,7.77
2023-05-05T05:09:25.417Z,7.60
2023-05-05T05:11:52.773Z,7.37
2023-05-05T05:14:20.669Z,7.37
2023-05-05T05:16:51.045Z,7.53
2023-05-05T05:19:17.874Z,7.73
2023-05-05T05:21:44.458Z,8.50
2023-05-05T05:24:11.511Z,8.73
2023-05-05T05:26:38.768Z,9.10
2023-05-05T05:29:06.128Z,8.40
2023-05-05T05:31:34.262Z,7.23
2023-05-05T05:34:00.994Z,7.20
2023-05-05T05:36:28.292Z,6.70
2023-05-05T05:38:54.746Z,6.95
2023-05-05T05:41:21.551Z,7.97
2023-05-05T05:43:48.205Z,8.52
2023-05-05T05:46:14.849Z,8.73
2023-05-05T05:48:42.525Z,9.23
2023-05-05T05:51:09.115Z,8.43
2023-05-05T05:53:35.729Z,7.50
2023-05-05T05:56:02.273Z,7.95
2023-05-05T05:58:28.936Z,7.57
2023-05-05T06:00:55.458Z,7.32
2023-05-05T06:03:22.058Z,7.28
2023-05-05T06:05:48.711Z,7.88
2023-05-05T06:08:15.664Z,7.95
2023-05-05T06:10:48.179Z,9.13
2023-05-05T06:13:18.025Z,8.35
2023-05-05T06:15:47.936Z,7.75
2023-05-05T06:18:15.285Z,7.45
2023-05-05T06:20:43.380Z,7.22
2023-05-05T06:23:11.216Z,6.30
2023-05-05T06:25:42.159Z,6.10
2023-05-05T06:28:08.723Z,5.70
2023-05-05T06:30:35.172Z,6.28
2023-05-05T06:33:01.642Z,5.93
2023-05-05T06:35:30.206Z,5.55
2023-05-05T06:37:56.664Z,4.47
2023-05-05T06:40:23.287Z,3.95
2023-05-05T06:42:49.920Z,3.53
2023-05-05T06:45:22.189Z,3.53
2023-05-05T06:47:49.159Z,4.47
2023-05-05T06:50:15.696Z,4.55
2023-05-05T06:52:42.474Z,4.13
2023-05-05T06:55:09.693Z,3.85
2023-05-05T06:57:36.193Z,4.20
2023-05-05T07:00:05.698Z,3.75
2023-05-05T07:02:33.567Z,3.83
2023-05-05T07:05:00.238Z,3.63
2023-05-05T07:07:26.884Z,3.15
2023-05-05T07:09:53.301Z,2.63
2023-05-05T07:12:19.864Z,2.35
2023-05-05T07:14:46.707Z,2.67
2023-05-05T07:17:13.234Z,2.30
2023-05-05T07:19:39.769Z,2.60
2023-05-05T07:22:06.276Z,2.35
2023-05-05T07:24:32.773Z,2.28
2023-05-05T07:26:59.297Z,2.25
2023-05-05T07:29:25.856Z,2.40
2023-05-05T07:31:52.410Z,2.60
2023-05-05T07:34:18.841Z,3.05
2023-05-05T07:36:45.447Z,2.78
2023-05-05T07:39:14.906Z,2.30
2023-05-05T07:41:42.376Z,2.03
2023-05-05T07:44:08.894Z,2.22
2023-05-05T07:46:35.396Z,2.38
2023-05-05T07:49:01.908Z,2.17
2023-05-05T07:51:28.351Z,2.00
2023-05-05T07:53:55.724Z,1.85
2023-05-05T07:56:22.145Z,2.38
2023-05-05T07:58:48.558Z,2.15
2023-05-05T08:01:15.010Z,2.08
2023-05-05T08:03:41.737Z,1.80
2023-05-05T08:06:14.406Z,1.58
2023-05-05T08:08:40.858Z,1.50
2023-05-05T08:11:07.934Z,1.33
2023-05-05T08:13:34.609Z,1.63
2023-05-05T08:16:01.212Z,1.60
2023-05-05T08:18:27.858Z,1.60
2023-05-05T08:20:54.719Z,1.50
2023-05-05T08:23:21.633Z,1.65
2023-05-05T08:25:48.104Z,1.33
2023-05-05T08:28:14.612Z,1.20
2023-05-05T08:30:41.316Z,1.10
2023-05-05T08:33:07.843Z,1.38
2023-05-05T08:35:34.373Z,1.45
2023-05-05T08:38:00.797Z,1.40
2023-05-05T08:40:32.096Z,1.08
2023-05-05T08:42:59.144Z,1.23
2023-05-05T08:45:27.451Z,1.58
2023-05-05T08:47:56.301Z,1.33
2023-05-05T08:50:26.859Z,1.20
2023-05-05T08:53:08.115Z,1.20
2023-05-05T08:55:35.840Z,1.50
2023-05-05T08:58:05.680Z,1.30
2023-05-05T09:00:33.450Z,1.15
2023-05-05T09:03:01.352Z,1.10
2023-05-05T09:05:28.013Z,1.20
2023-05-05T09:07:54.471Z,1.35
2023-05-05T09:10:21.525Z,1.60
2023-05-05T09:12:50.372Z,1.20
2023-05-05T09:15:16.840Z,1.10
2023-05-05T09:17:44.124Z,1.17
2023-05-05T09:20:12.781Z,1.20
2023-05-05T09:22:43.070Z,1.10
2023-05-05T09:25:11.957Z,1.20
2023-05-05T09:27:43.673Z,1.17
2023-05-05T09:30:12.359Z,1.00
2023-05-05T09:32:52.980Z,1.23
2023-05-05T09:35:20.423Z,1.15
2023-05-05T09:37:47.092Z,1.38
2023-05-05T09:40:15.295Z,0.70
2023-05-05T09:42:41.868Z,0.70
2023-05-05T09:45:25.975Z,0.57
2023-05-05T09:47:58.799Z,0.63
2023-05-05T09:50:30.095Z,0.52
2023-05-05T09:53:01.381Z,0.90
2023-05-05T09:55:28.822Z,0.90
2023-05-05T09:57:55.696Z,1.10
2023-05-05T10:00:22.674Z,0.90
2023-05-05T10:02:49.202Z,0.60
2023-05-05T10:05:18.087Z,1.02
2023-05-05T10:07:46.251Z,1.27
2023-05-05T10:10:15.469Z,1.15
2023-05-05T10:12:42.451Z,0.90
2023-05-05T10:15:10.616Z,0.98
2023-05-05T10:18:02.818Z,0.88
2023-05-05T10:20:33.352Z,0.80
2023-05-05T10:23:05.485Z,0.80
2023-05-05T10:25:39.052Z,1.10
2023-05-05T10:28:06.820Z,0.80
2023-05-05T10:30:39.474Z,0.80
2023-05-05T10:33:31.078Z,0.80
2023-05-05T10:36:01.656Z,0.70
2023-05-05T10:38:30.895Z,0.80
2023-05-05T10:41:00.007Z,0.90
2023-05-05T10:43:28.272Z,0.80
2023-05-05T10:45:55.676Z,0.60
2023-05-05T10:48:32.239Z,0.63
2023-05-05T10:51:39.398Z,0.90
2023-05-05T10:54:30.153Z,0.73
2023-05-05T10:57:01.219Z,1.00
2023-05-05T10:59:36.911Z,0.68
2023-05-05T11:02:29.462Z,0.50
2023-05-05T11:05:31.867Z,0.70
2023-05-05T11:08:25.021Z,0.65
2023-05-05T11:10:51.456Z,0.50
2023-05-05T11:13:19.479Z,0.80
2023-05-05T11:15:46.082Z,0.50
2023-05-05T11:18:30.547Z,0.60
2023-05-05T11:20:59.980Z,0.45
2023-05-05T11:23:26.831Z,0.70
2023-05-05T11:25:54.117Z,0.60
2023-05-05T11:28:24.912Z,0.50
2023-05-05T11:31:17.918Z,0.80
2023-05-05T11:33:45.092Z,0.75
2023-05-05T11:36:14.364Z,0.70
2023-05-05T11:39:17.817Z,0.65
2023-05-05T11:42:32.146Z,0.80
2023-05-05T11:44:59.342Z,0.57
2023-05-05T11:47:27.589Z,1.10
2023-05-05T11:49:55.503Z,1.00
2023-05-05T11:52:24.292Z,1.02
2023-05-05T11:54:51.286Z,0.95
2023-05-05T11:57:28.036Z,0.80
2023-05-05T11:59:56.150Z,0.70
2023-05-05T12:02:24.053Z,0.90
2023-05-05T12:04:50.931Z,0.90
2023-05-05T12:07:19.357Z,0.88
2023-05-05T12:09:46.973Z,0.80
2023-05-05T12:12:14.606Z,1.10
2023-05-05T12:14:52.442Z,0.98
2023-05-05T12:17:20.532Z,0.80
2023-05-05T12:19:54.184Z,0.80
2023-05-05T12:22:28.052Z,0.80
2023-05-05T12:24:58.959Z,0.80
2023-05-05T12:27:27.477Z,0.85
2023-05-05T12:29:55.462Z,0.80
2023-05-05T12:32:24.504Z,0.80
2023-05-05T12:34:57.309Z,0.80
2023-05-05T12:37:26.128Z,0.80
2023-05-05T12:39:54.735Z,1.27
2023-05-05T12:42:22.061Z,1.05
2023-05-05T12:44:49.120Z,0.80
2023-05-05T12:47:28.708Z,1.25
2023-05-05T12:49:55.279Z,1.17
2023-05-05T12:52:21.823Z,1.00
2023-05-05T12:54:59.358Z,1.00
2023-05-05T12:57:26.023Z,0.82
2023-05-05T12:59:53.356Z,0.80
2023-05-05T13:02:21.128Z,0.90
2023-05-05T13:04:52.956Z,0.90
2023-05-05T13:07:21.157Z,1.00
2023-05-05T13:09:51.283Z,0.75
2023-05-05T13:12:18.700Z,0.80
2023-05-05T13:14:46.557Z,0.90
2023-05-05T13:17:13.825Z,0.85
2023-05-05T13:19:46.123Z,0.90
2023-05-05T13:22:13.317Z,0.90
2023-05-05T13:24:50.764Z,0.80
2023-05-05T13:27:19.637Z,0.98
2023-05-05T13:29:46.581Z,1.00
2023-05-05T13:32:13.032Z,0.90
2023-05-05T13:34:39.674Z,0.93
2023-05-05T13:37:06.390Z,0.93
2023-05-05T13:39:33.162Z,1.25
2023-05-05T13:41:59.682Z,1.10
2023-05-05T13:44:26.096Z,0.98
2023-05-05T13:46:52.577Z,0.70
2023-05-05T13:49:20.066Z,1.17
2023-05-05T13:51:47.034Z,1.05
2023-05-05T13:54:13.868Z,1.40
2023-05-05T13:56:40.461Z,0.85
2023-05-05T13:59:06.958Z,0.73
2023-05-05T14:01:33.619Z,1.17
2023-05-05T14:04:01.516Z,1.20
2023-05-05T14:06:30.444Z,1.20
2023-05-05T14:08:56.839Z,1.00
2023-05-05T14:11:23.290Z,1.40
2023-05-05T14:13:49.791Z,1.10
2023-05-05T14:16:16.684Z,1.00
2023-05-05T14:18:43.184Z,1.20
2023-05-05T14:21:09.821Z,1.30
2023-05-05T14:23:36.257Z,1.13
2023-05-05T14:26:02.755Z,1.23
2023-05-05T14:28:29.220Z,1.20
2023-05-05T14:30:56.013Z,1.17
2023-05-05T14:33:22.524Z,1.10
2023-05-05T14:35:49.127Z,1.10
2023-05-05T14:38:15.652Z,0.90
2023-05-05T14:40:42.311Z,1.30
2023-05-05T14:43:08.762Z,1.20
2023-05-05T14:45:35.292Z,1.00
2023-05-05T14:48:02.348Z,1.08
2023-05-05T14:50:28.768Z,0.95
2023-05-05T14:52:55.174Z,1.15
2023-05-05T14:55:21.737Z,0.80
2023-05-05T14:57:48.116Z,1.05
2023-05-05T15:00:14.928Z,0.80
2023-05-05T15:02:41.518Z,0.77
2023-05-05T15:05:08.645Z,0.80
2023-05-05T15:07:35.294Z,1.10
2023-05-05T15:10:01.850Z,1.00
2023-05-05T15:12:28.286Z,1.15
2023-05-05T15:14:55.404Z,1.10
2023-05-05T15:17:22.122Z,1.33
2023-05-05T15:19:48.596Z,1.38
2023-05-05T15:22:15.048Z,1.50
2023-05-05T15:24:41.476Z,1.70
2023-05-05T15:27:08.171Z,1.50
2023-05-05T15:29:34.629Z,2.13
2023-05-05T15:32:01.397Z,1.45
2023-05-05T15:34:27.910Z,1.30
2023-05-05T15:36:54.806Z,1.80
2023-05-05T15:39:21.411Z,1.42
2023-05-05T15:41:47.850Z,1.48
2023-05-05T15:44:14.348Z,1.30
2023-05-05T15:46:41.262Z,1.40
2023-05-05T15:49:07.823Z,1.48
2023-05-05T15:51:34.278Z,1.50
2023-05-05T15:54:00.821Z,2.50
2023-05-05T15:56:27.476Z,2.17
2023-05-05T15:58:54.291Z,2.05
2023-05-05T16:01:21.013Z,1.85
2023-05-05T16:03:47.504Z,2.10
2023-05-05T16:06:14.041Z,1.40
2023-05-05T16:08:40.794Z,1.85
2023-05-05T16:11:07.196Z,6.53
2023-05-05T16:13:33.656Z,2.35
2023-05-05T16:16:00.149Z,8.52
2023-05-05T16:18:26.637Z,14.45
2023-05-05T16:20:53.093Z,2.17
2023-05-05T16:23:19.486Z,3.65
2023-05-05T16:25:45.909Z,2.10
2023-05-05T16:28:12.438Z,1.48
2023-05-05T16:30:39.822Z,1.65
2023-05-05T16:33:06.772Z,1.30
2023-05-05T16:35:33.466Z,1.65
2023-05-05T16:37:59.902Z,1.75
2023-05-05T16:40:26.350Z,1.40
2023-05-05T16:42:52.866Z,1.40
2023-05-05T16:45:19.333Z,1.60
2023-05-05T16:47:45.827Z,1.80
2023-05-05T16:50:12.320Z,1.70
2023-05-05T16:52:38.884Z,1.80
2023-05-05T16:55:05.539Z,2.15
2023-05-05T16:57:31.937Z,3.17
2023-05-05T16:59:58.399Z,8.95
2023-05-05T17:02:24.956Z,3.15
2023-05-05T17:04:51.532Z,1.95
2023-05-05T17:07:18.034Z,2.10
2023-05-05T17:09:44.640Z,3.15
2023-05-05T17:12:11.160Z,6.65
2023-05-05T17:14:37.750Z,6.63
2023-05-05T17:17:04.331Z,3.38
2023-05-05T17:19:31.301Z,2.15
2023-05-05T17:21:57.735Z,1.63
2023-05-05T17:24:24.262Z,1.42
2023-05-05T17:26:50.823Z,1.60
2023-05-05T17:29:21.513Z,1.40
2023-05-05T17:31:48.085Z,1.50
2023-05-05T17:34:14.544Z,1.52
2023-05-05T17:36:41.102Z,1.20
2023-05-05T17:39:08.092Z,1.52
2023-05-05T17:41:34.543Z,2.38
2023-05-05T17:44:00.977Z,3.15
2023-05-05T17:46:27.921Z,5.18
2023-05-05T17:48:55.131Z,1.52
2023-05-05T17:51:21.629Z,1.13
2023-05-05T17:53:48.024Z,1.23
2023-05-05T17:56:14.421Z,1.13
2023-05-05T17:58:41.230Z,1.40
2023-05-05T18:01:07.762Z,1.17
2023-05-05T18:03:34.309Z,1.35
2023-05-05T18:06:02.205Z,1.08
2023-05-05T18:08:28.668Z,1.00
2023-05-05T18:10:55.061Z,1.00
2023-05-05T18:13:21.529Z,1.20
2023-05-05T18:15:48.034Z,1.35
2023-05-05T18:18:14.633Z,1.08
2023-05-05T18:20:41.213Z,1.33
2023-05-05T18:23:07.719Z,1.20
2023-05-05T18:25:34.101Z,1.00
2023-05-05T18:28:00.516Z,1.20
2023-05-05T18:30:27.513Z,1.58
2023-05-05T18:32:54.002Z,1.40
2023-05-05T18:35:21.373Z,0.90
2023-05-05T18:37:47.999Z,0.95
2023-05-05T18:40:14.503Z,1.02
2023-05-05T18:42:41.687Z,1.40
2023-05-05T18:45:10.546Z,1.02
2023-05-05T18:47:38.370Z,1.10
2023-05-05T18:50:06.123Z,1.10
2023-05-05T18:52:33.081Z,1.40
2023-05-05T18:54:59.725Z,0.93
2023-05-05T18:57:27.272Z,1.25
2023-05-05T18:59:53.715Z,0.98
2023-05-05T19:02:20.201Z,1.20
2023-05-05T19:04:46.761Z,1.38
2023-05-05T19:07:23.858Z,0.98
2023-05-05T19:09:58.024Z,1.05
2023-05-05T19:12:24.472Z,1.10
2023-05-05T19:14:50.898Z,0.98
2023-05-05T19:17:17.487Z,0.90
2023-05-05T19:19:44.023Z,1.23
2023-05-05T19:22:10.443Z,1.02
2023-05-05T19:24:36.978Z,1.20
2023-05-05T19:27:03.904Z,1.25
2023-05-05T19:29:33.358Z,1.40
2023-05-05T19:31:59.846Z,2.30
2023-05-05T19:34:26.323Z,1.88
2023-05-05T19:36:52.817Z,2.03
2023-05-05T19:39:19.243Z,2.95
2023-05-05T19:41:45.868Z,3.03
2023-05-05T19:44:12.360Z,2.80
2023-05-05T19:46:39.190Z,2.13
2023-05-05T19:49:06.125Z,1.50
2023-05-05T19:51:32.614Z,1.50
2023-05-05T19:53:59.415Z,1.75
2023-05-05T19:56:26.246Z,1.50
2023-05-05T19:58:57.518Z,1.50
2023-05-05T20:01:24.177Z,1.50
2023-05-05T20:03:52.407Z,1.15
2023-05-05T20:06:19.051Z,1.20
2023-05-05T20:08:45.545Z,1.40
2023-05-05T20:11:12.441Z,1.20
2023-05-05T20:13:39.050Z,1.20
2023-05-05T20:16:06.443Z,1.15
2023-05-05T20:18:33.049Z,1.20
2023-05-05T20:20:59.664Z,1.33
2023-05-05T20:23:26.612Z,1.30
2023-05-05T20:25:54.201Z,1.30
2023-05-05T20:28:20.784Z,2.05
2023-05-05T20:30:47.193Z,2.20
2023-05-05T20:33:13.630Z,3.05
2023-05-05T20:35:40.102Z,3.08
2023-05-05T20:38:06.546Z,3.20
2023-05-05T20:40:33.593Z,2.78
2023-05-05T20:43:00.194Z,2.60
2023-05-05T20:45:26.673Z,2.30
2023-05-05T20:47:53.310Z,2.78
2023-05-05T20:50:22.386Z,2.90
2023-05-05T20:52:49.391Z,3.28
2023-05-05T20:55:15.865Z,2.80
2023-05-05T20:57:42.300Z,2.80
2023-05-05T21:00:09.385Z,2.00
2023-05-05T21:02:37.340Z,1.63
2023-05-05T21:05:04.417Z,1.75
2023-05-05T21:07:34.234Z,2.05
2023-05-05T21:10:04.639Z,1.88
2023-05-05T21:12:31.194Z,2.42
2023-05-05T21:14:58.793Z,1.67
2023-05-05T21:17:29.235Z,2.00
2023-05-05T21:19:56.016Z,1.83
2023-05-05T21:22:22.846Z,2.25
2023-05-05T21:24:49.332Z,2.00
2023-05-05T21:27:15.936Z,2.53
2023-05-05T21:29:42.332Z,1.88
2023-05-05T21:32:10.583Z,2.28
2023-05-05T21:34:38.047Z,2.38
2023-05-05T21:37:05.534Z,2.22
2023-05-05T21:39:33.171Z,2.13
2023-05-05T21:42:00.580Z,2.35
2023-05-05T21:44:28.111Z,2.17
2023-05-05T21:46:55.056Z,2.20
2023-05-05T21:49:21.704Z,2.50
2023-05-05T21:51:48.149Z,2.55
2023-05-05T21:54:14.647Z,2.38
2023-05-05T21:56:41.125Z,2.20
2023-05-05T21:59:07.616Z,2.25
2023-05-05T22:01:34.174Z,2.40
2023-05-05T22:04:00.654Z,2.40
2023-05-05T22:06:27.210Z,2.25
2023-05-05T22:08:53.688Z,2.35
2023-05-05T22:11:20.194Z,2.20
2023-05-05T22:13:46.663Z,1.90
2023-05-05T22:16:16.409Z,2.00
2023-05-05T22:18:43.369Z,2.38
2023-05-05T22:21:10.109Z,2.38
2023-05-05T22:23:37.248Z,2.35
2023-05-05T22:26:04.774Z,2.08
2023-05-05T22:28:31.291Z,2.60
2023-05-05T22:30:57.756Z,2.60
2023-05-05T22:33:24.384Z,2.75
2023-05-05T22:35:51.938Z,2.47
2023-05-05T22:38:18.658Z,2.25
2023-05-05T22:40:45.407Z,2.85
2023-05-05T22:43:12.136Z,2.83
2023-05-05T22:45:38.642Z,2.38
2023-05-05T22:48:05.587Z,2.92
2023-05-05T22:50:32.264Z,2.72
2023-05-05T22:52:58.769Z,2.25
2023-05-05T22:55:25.276Z,2.35
2023-05-05T22:57:52.681Z,2.30
2023-05-05T23:00:19.601Z,2.20
2023-05-05T23:02:46.045Z,2.00
2023-05-05T23:05:12.775Z,2.20
2023-05-05T23:07:39.446Z,2.05
2023-05-05T23:10:06.359Z,2.20
2023-05-05T23:12:33.039Z,1.73
2023-05-05T23:14:59.500Z,1.95
2023-05-05T23:17:25.983Z,2.03
2023-05-05T23:19:52.482Z,2.40
2023-05-05T23:22:18.907Z,2.58
2023-05-05T23:24:45.281Z,2.28
2023-05-05T23:27:12.121Z,2.70
2023-05-05T23:29:38.684Z,2.63
2023-05-05T23:32:05.679Z,2.25
2023-05-05T23:34:32.231Z,2.55
2023-05-05T23:36:58.658Z,2.90
2023-05-05T23:39:25.086Z,2.40
2023-05-05T23:41:51.562Z,2.25
2023-05-05T23:44:17.948Z,2.30
2023-05-05T23:46:44.398Z,2.58
2023-05-05T23:49:10.885Z,1.90
2023-05-05T23:51:37.487Z,2.60
2023-05-05T23:54:04.143Z,2.30
2023-05-05T23:56:30.622Z,2.20
2023-05-05T23:58:57.101Z,2.47
